Time;durP1;ratioP1;P1;durP2;ratioP2;P2;SDS_P1;SDS_P2;PMS_P1;PMS_P2;Temp;Humidity;BMP_temperature;BMP_pressure;BME280_temperature;BME280_humidity;BME280_pressure;Samples;Min_cycle;Max_cycle;Signal;HPM_P1;HPM_P2
2023/05/01 00:01:02;;;;;;;0.13;0.10;;;9.70;99.90;;;;;;5092154;28;20123;-91
2023/05/01 00:03:33;;;;;;;3.60;0.57;;;9.00;99.90;;;;;;5091099;28;20094;-93
2023/05/01 00:06:03;;;;;;;0.60;0.43;;;9.60;99.90;;;;;;5072404;28;20113;-92
2023/05/01 00:08:53;;;;;;;2.88;0.47;;;9.50;99.90;;;;;;5091297;28;20040;-94
2023/05/01 00:11:44;;;;;;;0.63;0.30;;;9.50;99.90;;;;;;5086135;28;20076;-92
2023/05/01 00:14:13;;;;;;;0.57;0.43;;;9.90;99.90;;;;;;5075154;28;20401;-92
2023/05/01 00:16:39;;;;;;;1.10;0.38;;;8.50;99.90;;;;;;5089865;28;20053;-92
2023/05/01 00:19:17;;;;;;;0.33;0.23;;;9.50;99.90;;;;;;5116550;28;20101;-92
2023/05/01 00:22:31;;;;;;;0.40;0.38;;;9.30;99.90;;;;;;5073753;28;20095;-91
2023/05/01 00:24:38;;;;;;;0.30;0.30;;;9.20;99.90;;;;;;5051652;28;20113;-92
2023/05/01 00:27:06;;;;;;;1.23;0.30;;;9.30;99.90;;;;;;5082594;28;20041;-94
2023/05/01 00:29:39;;;;;;;0.73;0.57;;;9.20;99.90;;;;;;5054794;28;20101;-92
2023/05/01 00:32:05;;;;;;;0.75;0.22;;;9.30;99.90;;;;;;5054497;28;20053;-94
2023/05/01 00:34:37;;;;;;;0.28;0.20;;;9.30;99.90;;;;;;5056004;28;20067;-92
2023/05/01 00:37:12;;;;;;;0.45;0.30;;;9.20;99.90;;;;;;5064866;28;20052;-92
2023/05/01 00:39:48;;;;;;;0.17;0.17;;;9.20;99.90;;;;;;5064005;28;20123;-92
2023/05/01 00:42:34;;;;;;;;;;;;;;;;;;;;;
2023/05/01 00:45:13;;;;;;;;;;;;;;;;;;;;;
2023/05/01 00:47:44;;;;;;;1.05;0.50;;;9.20;99.90;;;;;;5109967;27;20036;-92
2023/05/01 00:50:13;;;;;;;0.82;0.75;;;9.20;99.90;;;;;;5073975;28;20056;-92
2023/05/01 00:52:44;;;;;;;1.02;0.73;;;9.10;99.90;;;;;;5077651;28;20040;-92
2023/05/01 00:55:15;;;;;;;0.60;0.40;;;9.10;99.90;;;;;;5061264;28;20047;-92
2023/05/01 00:57:50;;;;;;;0.13;0.13;;;9.10;99.90;;;;;;5084164;28;20383;-92
2023/05/01 01:00:23;;;;;;;0.25;0.25;;;9.10;99.90;;;;;;5074784;28;20083;-92
2023/05/01 01:03:04;;;;;;;1.10;0.30;;;9.10;99.90;;;;;;5058337;28;20045;-91
2023/05/01 01:05:52;;;;;;;0.32;0.32;;;10.10;99.90;;;;;;5074499;28;20052;-92
2023/05/01 01:08:27;;;;;;;0.80;0.30;;;9.20;99.90;;;;;;5058531;28;20135;-92
2023/05/01 01:11:22;;;;;;;1.85;0.60;;;8.90;99.90;;;;;;5057571;28;20084;-92
2023/05/01 01:14:09;;;;;;;0.43;0.40;;;8.90;99.90;;;;;;5081399;28;20111;-92
2023/05/01 01:16:53;;;;;;;1.25;0.43;;;9.00;99.90;;;;;;5074346;28;20044;-93
2023/05/01 01:19:53;;;;;;;0.15;0.15;;;8.80;99.90;;;;;;5076530;28;20051;-92
2023/05/01 01:22:44;;;;;;;0.22;0.22;;;8.80;99.90;;;;;;5075469;28;20401;-93
2023/05/01 01:25:19;;;;;;;0.55;0.32;;;8.70;99.90;;;;;;5057902;28;20044;-92
2023/05/01 01:28:28;;;;;;;0.08;0.08;;;8.90;99.90;;;;;;5061865;28;20130;-92
2023/05/01 01:31:35;;;;;;;0.20;0.13;;;8.70;99.90;;;;;;5076958;28;20099;-92
2023/05/01 01:34:33;;;;;;;0.65;0.40;;;8.70;99.90;;;;;;5076547;28;20056;-92
2023/05/01 01:37:21;;;;;;;0.30;0.30;;;7.70;99.90;;;;;;5094337;28;20139;-91
2023/05/01 01:40:12;;;;;;;0.30;0.30;;;8.80;99.90;;;;;;5076218;28;20056;-93
2023/05/01 01:43:24;;;;;;;0.47;0.47;;;8.60;99.90;;;;;;5061456;28;20080;-92
2023/05/01 01:46:20;;;;;;;0.90;0.30;;;7.60;99.90;;;;;;5062964;28;20113;-92
2023/05/01 01:49:04;;;;;;;0.20;0.20;;;8.90;99.90;;;;;;5038526;28;20048;-91
2023/05/01 01:51:33;;;;;;;0.45;0.40;;;8.10;99.90;;;;;;5102058;28;20076;-93
2023/05/01 01:54:58;;;;;;;;;;;;;;;;;;;;;
2023/05/01 01:57:52;;;;;;;0.50;0.50;;;8.40;99.90;;;;;;5078744;28;20040;-91
2023/05/01 02:00:21;;;;;;;0.65;0.65;;;8.40;99.90;;;;;;5075803;28;20490;-92
2023/05/01 02:03:10;;;;;;;0.57;0.57;;;8.30;99.90;;;;;;5073875;28;20045;-92
2023/05/01 02:05:41;;;;;;;0.52;0.47;;;7.50;99.90;;;;;;5076607;28;20044;-95
2023/05/01 02:08:52;;;;;;;0.10;0.10;;;8.40;99.90;;;;;;5076847;28;20044;-91
2023/05/01 02:11:22;;;;;;;0.90;0.20;;;8.40;99.90;;;;;;5104395;28;20205;-92
2023/05/01 02:14:06;;;;;;;;;;;;;;;;;;;;;
2023/05/01 02:16:36;;;;;;;0.13;0.13;;;8.10;99.90;;;;;;5073475;28;20052;-92
2023/05/01 02:19:13;;;;;;;0.63;0.28;;;7.40;99.90;;;;;;5079043;28;20043;-93
2023/05/01 02:21:45;;;;;;;0.10;0.10;;;8.20;99.90;;;;;;5109102;27;20391;-92
2023/05/01 02:24:23;;;;;;;1.17;0.57;;;8.10;99.90;;;;;;5073081;28;20090;-92
2023/05/01 02:27:11;;;;;;;0.25;0.20;;;8.00;99.90;;;;;;5091793;28;20044;-92
2023/05/01 02:29:46;;;;;;;0.95;0.45;;;7.20;99.90;;;;;;5073151;28;20075;-92
2023/05/01 02:32:23;;;;;;;0.75;0.60;;;7.50;99.90;;;;;;5056233;28;20127;-91
2023/05/01 02:35:04;;;;;;;;;;;;;;;;;;;;;
2023/05/01 02:37:36;;;;;;;0.50;0.20;;;8.00;99.90;;;;;;5096428;28;20656;-91
2023/05/01 02:40:22;;;;;;;1.27;0.40;;;8.00;99.90;;;;;;5076034;28;20109;-91
2023/05/01 02:42:52;;;;;;;0.60;0.55;;;7.70;99.90;;;;;;5124236;27;20048;-91
2023/05/01 02:45:34;;;;;;;;;;;;;;;;;;;;;
2023/05/01 02:48:11;;;;;;;0.98;0.45;;;8.00;99.90;;;;;;5088347;28;20151;-92
2023/05/01 02:50:40;;;;;;;1.27;0.80;;;7.80;99.90;;;;;;5056272;28;20052;-92
2023/05/01 02:53:14;;;;;;;0.95;0.40;;;7.70;99.90;;;;;;5107987;27;20040;-91
2023/05/01 02:55:46;;;;;;;0.43;0.43;;;7.70;99.90;;;;;;5089529;28;20040;-95
2023/05/01 02:58:16;;;;;;;0.20;0.20;;;7.00;99.90;;;;;;5070818;28;20086;-92
2023/05/01 03:00:50;;;;;;;0.25;0.25;;;7.70;99.90;;;;;;5089399;28;20085;-94
2023/05/01 03:03:34;;;;;;;0.55;0.20;;;7.60;99.90;;;;;;5072181;28;20074;-93
2023/05/01 03:06:20;;;;;;;;;;;;;;;;;;;;;
2023/05/01 03:09:04;;;;;;;;;;;;;;;;;;;;;
2023/05/01 03:11:40;;;;;;;0.45;0.30;;;7.60;99.90;;;;;;5092117;28;20471;-92
2023/05/01 03:14:11;;;;;;;0.17;0.17;;;7.50;99.90;;;;;;5073442;28;20046;-92
2023/05/01 03:19:36;;;;;;;0.63;0.25;;;7.30;99.90;;;;;;5090144;28;20055;-91
2023/05/01 03:22:12;;;;;;;;;;;;;;;;;;;;;
2023/05/01 03:24:43;;;;;;;0.10;0.10;;;7.20;99.90;;;;;;5089783;28;20059;-92
2023/05/01 03:27:17;;;;;;;0.50;0.50;;;8.20;99.90;;;;;;5058966;28;20048;-92
2023/05/01 03:29:43;;;;;;;0.38;0.25;;;6.80;99.90;;;;;;5075447;28;20428;-91
2023/05/01 03:32:19;;;;;;;;;;;;;;;;;;;;;
2023/05/01 03:34:58;;;;;;;0.88;0.60;;;5.90;99.90;;;;;;5074811;28;20128;-91
2023/05/01 03:37:38;;;;;;;0.35;0.30;;;7.40;99.90;;;;;;5072035;28;20139;-92
2023/05/01 03:43:07;;;;;;;0.82;0.50;;;6.10;99.90;;;;;;5090942;28;20525;-92
2023/05/01 03:45:56;;;;;;;1.30;0.30;;;6.90;99.90;;;;;;5076857;28;20494;-93
2023/05/01 03:48:29;;;;;;;0.75;0.20;;;6.90;99.90;;;;;;5087630;28;20050;-91
2023/05/01 03:51:00;;;;;;;1.60;0.30;;;7.00;99.90;;;;;;5074805;28;20244;-93
2023/05/01 03:53:59;;;;;;;;;;;;;;;;;;;;;
2023/05/01 03:56:34;;;;;;;0.30;0.30;;;6.40;99.90;;;;;;5092128;28;20056;-92
2023/05/01 03:59:31;;;;;;;0.28;0.28;;;6.80;99.90;;;;;;5065756;28;20055;-92
2023/05/01 04:01:56;;;;;;;;;;;6.70;99.90;;;;;;5095487;28;20041;-93
2023/05/01 04:04:33;;;;;;;0.43;0.20;;;6.80;99.90;;;;;;5063143;28;19969;-91
2023/05/01 04:07:16;;;;;;;0.20;0.20;;;6.60;99.90;;;;;;5070973;28;20037;-92
2023/05/01 04:09:47;;;;;;;0.70;0.60;;;7.00;99.90;;;;;;5067924;28;20065;-94
2023/05/01 04:15:02;;;;;;;0.20;0.20;;;6.70;99.90;;;;;;5072826;28;20048;-91
2023/05/01 04:17:44;;;;;;;;;;;;;;;;;;;;;
2023/05/01 04:20:17;;;;;;;0.65;0.38;;;6.70;99.90;;;;;;5075112;28;20114;-91
2023/05/01 04:22:49;;;;;;;1.23;0.52;;;6.60;99.90;;;;;;5109605;28;20052;-91
2023/05/01 04:25:45;;;;;;;1.00;0.25;;;6.60;99.90;;;;;;5058361;28;20074;-91
2023/05/01 04:28:14;;;;;;;0.43;0.43;;;6.60;99.90;;;;;;5058593;28;20048;-91
2023/05/01 04:30:49;;;;;;;0.35;0.35;;;6.10;99.90;;;;;;5092567;28;20036;-91
2023/05/01 04:33:36;;;;;;;;;;;;;;;;;;;;;
2023/05/01 04:36:14;;;;;;;;;;;;;;;;;;;;;
2023/05/01 04:39:15;;;;;;;0.28;0.20;;;6.70;99.90;;;;;;5075122;28;20060;-91
2023/05/01 04:41:51;;;;;;;0.98;0.40;;;7.10;99.90;;;;;;5078953;28;20486;-91
2023/05/01 04:44:37;;;;;;;;;;;;;;;;;;;;;
2023/05/01 04:47:09;;;;;;;0.65;0.60;;;7.00;99.90;;;;;;5075991;28;20058;-91
2023/05/01 04:49:37;;;;;;;1.27;0.50;;;7.00;99.90;;;;;;5077703;28;20048;-91
2023/05/01 04:52:06;;;;;;;1.13;0.47;;;6.90;99.90;;;;;;5060857;28;20075;-92
2023/05/01 04:54:49;;;;;;;1.75;0.22;;;7.00;99.90;;;;;;5108879;28;20041;-91
2023/05/01 04:57:18;;;;;;;0.30;0.30;;;7.10;99.90;;;;;;5061318;28;20074;-91
2023/05/01 04:59:44;;;;;;;1.27;0.38;;;7.00;99.90;;;;;;5075848;28;20047;-91
2023/05/01 05:02:14;;;;;;;0.80;0.63;;;7.10;99.90;;;;;;5076588;28;20047;-91
2023/05/01 05:04:52;;;;;;;;;;;;;;;;;;;;;
2023/05/01 05:07:21;;;;;;;0.30;0.30;;;7.40;99.90;;;;;;5094541;28;20083;-91
2023/05/01 05:09:55;;;;;;;0.88;0.55;;;7.50;99.90;;;;;;5072481;28;20055;-90
2023/05/01 05:12:38;;;;;;;1.25;0.75;;;7.10;99.90;;;;;;5081220;28;20048;-90
2023/05/01 05:15:07;;;;;;;0.90;0.28;;;7.60;99.90;;;;;;5077349;28;20048;-89
2023/05/01 05:17:38;;;;;;;0.52;0.40;;;7.20;99.90;;;;;;5092430;28;20079;-87
2023/05/01 05:20:05;;;;;;;0.30;0.25;;;6.80;99.90;;;;;;5095168;28;20044;-93
2023/05/01 05:22:36;;;;;;;3.92;0.73;;;8.00;99.90;;;;;;5077454;28;20142;-87
2023/05/01 05:25:05;;;;;;;0.20;0.20;;;8.00;99.90;;;;;;5077695;28;20048;-91
2023/05/01 05:27:36;;;;;;;0.68;0.68;;;8.10;99.90;;;;;;5077639;28;20060;-88
2023/05/01 05:30:06;;;;;;;1.08;0.60;;;8.20;99.90;;;;;;5094939;28;20048;-86
2023/05/01 05:36:13;;;;;;;0.55;0.35;;;8.30;99.90;;;;;;5095005;28;20039;-88
2023/05/01 05:38:39;;;;;;;0.70;0.60;;;8.40;99.90;;;;;;5090423;28;20044;-88
2023/05/01 05:41:05;;;;;;;0.40;0.40;;;8.40;99.90;;;;;;5093887;28;20401;-90
2023/05/01 05:43:31;;;;;;;1.07;0.60;;;8.60;99.90;;;;;;5093978;28;20052;-88
2023/05/01 05:45:59;;;;;;;0.85;0.40;;;8.60;99.90;;;;;;5093598;28;20052;-86
2023/05/01 05:48:32;;;;;;;0.60;0.30;;;8.90;99.90;;;;;;5094777;28;20510;-89
2023/05/01 05:51:00;;;;;;;0.77;0.77;;;9.10;99.90;;;;;;5074483;28;20486;-89
2023/05/01 05:53:26;;;;;;;2.63;0.90;;;9.10;99.90;;;;;;5086884;28;20047;-88
2023/05/01 05:55:52;;;;;;;1.17;0.77;;;9.20;99.90;;;;;;5085607;28;20397;-87
2023/05/01 05:58:22;;;;;;;1.23;0.40;;;9.20;99.90;;;;;;5075361;28;20062;-89
2023/05/01 06:00:52;;;;;;;0.47;0.30;;;9.30;99.90;;;;;;5061404;28;20403;-92
2023/05/01 06:03:22;;;;;;;0.52;0.50;;;9.50;99.90;;;;;;5075936;28;20082;-91
2023/05/01 06:05:48;;;;;;;0.63;0.20;;;9.60;99.90;;;;;;5093656;28;20051;-90
2023/05/01 06:08:14;;;;;;;0.47;0.45;;;9.70;99.90;;;;;;5092889;28;20466;-87
2023/05/01 06:10:43;;;;;;;0.40;0.30;;;9.90;99.90;;;;;;5093419;28;20491;-89
2023/05/01 06:13:10;;;;;;;0.60;0.60;;;10.10;99.90;;;;;;5074368;28;20048;-93
2023/05/01 06:19:12;;;;;;;0.63;0.38;;;10.40;99.90;;;;;;5080713;28;20052;-89
2023/05/01 06:21:49;;;;;;;0.55;0.45;;;10.70;99.90;;;;;;5065965;28;20063;-90
2023/05/01 06:24:35;;;;;;;0.47;0.40;;;11.20;99.90;;;;;;5091941;28;20052;-89
2023/05/01 06:27:03;;;;;;;0.20;0.20;;;10.90;99.90;;;;;;5079088;28;20052;-89
2023/05/01 06:29:32;;;;;;;0.85;0.60;;;11.10;99.90;;;;;;5086486;28;20331;-94
2023/05/01 06:32:06;;;;;;;1.23;0.50;;;11.20;99.90;;;;;;5086614;28;20050;-93
2023/05/01 06:34:50;;;;;;;;;;;;;;;;;;;;;
2023/05/01 06:37:16;;;;;;;1.05;0.80;;;11.60;99.90;;;;;;5089291;28;20054;-91
2023/05/01 06:39:49;;;;;;;0.67;0.60;;;12.20;99.90;;;;;;5090277;28;20045;-92
2023/05/01 06:45:44;;;;;;;0.38;0.35;;;12.90;99.90;;;;;;5069344;28;20052;-93
2023/05/01 06:51:59;;;;;;;;;;;;;;;;;;;;;
2023/05/01 06:58:46;;;;;;;;;;;;;;;;;;;;;
2023/05/01 07:08:52;;;;;;;;;;;;;;;;;;;;;
2023/05/01 07:12:24;;;;;;;0.57;0.50;;;13.80;99.90;;;;;;5073511;28;20144;-92
2023/05/01 07:15:28;;;;;;;1.15;0.77;;;13.30;99.90;;;;;;5061242;28;20052;-94
2023/05/01 07:18:24;;;;;;;0.57;0.38;;;14.10;99.90;;;;;;5075858;28;20055;-93
2023/05/01 07:21:18;;;;;;;0.70;0.60;;;13.80;99.90;;;;;;5075821;28;20083;-94
2023/05/01 07:23:54;;;;;;;0.80;0.47;;;14.20;99.90;;;;;;5078853;28;20062;-94
2023/05/01 07:26:38;;;;;;;0.47;0.43;;;14.10;99.90;;;;;;5059304;28;20176;-94
2023/05/01 07:32:33;;;;;;;0.43;0.40;;;14.40;99.90;;;;;;5105270;28;20044;-91
2023/05/01 07:35:27;;;;;;;;;;;;;;;;;;;;;
2023/05/01 07:38:20;;;;;;;0.40;0.22;;;14.80;99.90;;;;;;5091628;28;20052;-92
2023/05/01 07:41:01;;;;;;;0.45;0.40;;;14.90;99.90;;;;;;5077676;28;20083;-92
2023/05/01 07:43:32;;;;;;;1.02;0.47;;;14.90;99.90;;;;;;5059900;28;20044;-92
2023/05/01 07:46:06;;;;;;;;;;;15.00;99.90;;;;;;5076298;28;20087;-92
2023/05/01 07:48:37;;;;;;;0.60;0.60;;;15.20;99.90;;;;;;5058534;28;20362;-88
2023/05/01 07:51:08;;;;;;;0.43;0.35;;;15.10;99.90;;;;;;5080070;28;20518;-87
2023/05/01 07:53:39;;;;;;;0.80;0.57;;;15.10;99.90;;;;;;5095586;28;20090;-89
2023/05/01 07:56:31;;;;;;;0.82;0.45;;;15.10;99.90;;;;;;5096425;28;20117;-89
2023/05/01 07:59:09;;;;;;;;;;;;;;;;;;;;;
2023/05/01 08:01:47;;;;;;;0.38;0.38;;;14.40;99.90;;;;;;5093718;28;20052;-94
2023/05/01 08:05:05;;;;;;;;;;;;;;;;;;;;;
2023/05/01 08:07:52;;;;;;;;;;;;;;;;;;;;;
2023/05/01 08:11:00;;;;;;;;;;;;;;;;;;;;;
2023/05/01 08:16:56;;;;;;;;;;;;;;;;;;;;;
2023/05/01 08:19:57;;;;;;;;;;;;;;;;;;;;;
2023/05/01 08:22:38;;;;;;;;;;;;;;;;;;;;;
2023/05/01 08:25:52;;;;;;;;;;;;;;;;;;;;;
2023/05/01 08:28:46;;;;;;;;;;;;;;;;;;;;;
2023/05/01 08:31:43;;;;;;;1.33;0.40;;;16.40;99.90;;;;;;5078727;28;20051;-94
2023/05/01 08:35:08;;;;;;;0.70;0.50;;;17.20;99.90;;;;;;5079532;28;20452;-94
2023/05/01 08:38:20;;;;;;;0.15;0.15;;;17.00;99.90;;;;;;5072077;28;20048;-93
2023/05/01 08:40:58;;;;;;;0.40;0.40;;;17.20;99.90;;;;;;5084465;28;20116;-93
2023/05/01 08:44:13;;;;;;;;;;;;;;;;;;;;;
2023/05/01 08:48:05;;;;;;;;;;;;;;;;;;;;;
2023/05/01 08:50:55;;;;;;;1.65;0.60;;;17.80;99.90;;;;;;5091413;28;20051;-94
2023/05/01 08:53:53;;;;;;;;;;;;;;;;;;;;;
2023/05/01 08:56:32;;;;;;;0.57;0.57;;;18.60;99.30;;;;;;5097890;28;20055;-93
2023/05/01 08:59:04;;;;;;;0.30;0.20;;;17.90;99.90;;;;;;5095329;28;20510;-93
2023/05/01 09:02:06;;;;;;;0.22;0.22;;;18.40;99.90;;;;;;5074699;28;20071;-93
2023/05/01 09:11:07;;;;;;;0.30;0.30;;;19.20;96.50;;;;;;5076193;28;20044;-94
2023/05/01 09:14:39;;;;;;;;;;;;;;;;;;;;;
2023/05/01 09:17:43;;;;;;;;;;;;;;;;;;;;;
2023/05/01 09:20:38;;;;;;;0.30;0.30;;;19.60;96.70;;;;;;5083007;28;20047;-95
2023/05/01 09:23:40;;;;;;;;;;;;;;;;;;;;;
2023/05/01 09:26:45;;;;;;;;;;;;;;;;;;;;;
2023/05/01 09:30:07;;;;;;;;;;;;;;;;;;;;;
2023/05/01 09:36:45;;;;;;;0.63;0.25;;;20.10;97.90;;;;;;5093794;28;20047;-93
2023/05/01 09:40:12;;;;;;;;;;;;;;;;;;;;;
2023/05/01 09:43:21;;;;;;;0.93;0.85;;;20.80;92.30;;;;;;5093976;28;20149;-93
2023/05/01 09:46:23;;;;;;;;;;;;;;;;;;;;;
2023/05/01 09:49:20;;;;;;;0.22;0.22;;;20.30;92.20;;;;;;5078125;28;20062;-93
2023/05/01 09:52:37;;;;;;;0.35;0.20;;;20.20;90.80;;;;;;5067427;28;20091;-93
2023/05/01 09:58:34;;;;;;;0.28;0.20;;;20.20;93.20;;;;;;5079640;28;20052;-93
2023/05/01 10:01:49;;;;;;;;;;;;;;;;;;;;;
2023/05/01 10:04:56;;;;;;;;;;;;;;;;;;;;;
2023/05/01 10:11:15;;;;;;;1.17;0.43;;;20.70;89.20;;;;;;5071697;28;20054;-94
2023/05/01 10:18:05;;;;;;;0.10;0.10;;;20.80;89.80;;;;;;5076282;28;20048;-93
2023/05/01 10:20:52;;;;;;;;;;;;;;;;;;;;;
2023/05/01 10:27:56;;;;;;;;;;;;;;;;;;;;;
2023/05/01 10:30:48;;;;;;;0.20;0.20;;;20.50;86.90;;;;;;5093151;28;20091;-93
2023/05/01 10:33:54;;;;;;;0.10;0.10;;;20.60;90.60;;;;;;5090366;28;20059;-93
2023/05/01 10:36:28;;;;;;;0.08;0.08;;;20.10;88.20;;;;;;5057823;28;20052;-95
2023/05/01 10:39:07;;;;;;;0.43;0.22;;;21.00;88.10;;;;;;5088777;28;20048;-93
2023/05/01 10:42:12;;;;;;;0.20;0.20;;;21.00;87.50;;;;;;5088559;28;20052;-95
2023/05/01 10:44:51;;;;;;;;;;;;;;;;;;;;;
2023/05/01 10:47:24;;;;;;;0.47;0.20;;;21.10;88.80;;;;;;5072629;28;20102;-91
2023/05/01 10:50:11;;;;;;;0.32;0.20;;;21.00;84.20;;;;;;5089668;28;20071;-92
2023/05/01 10:53:23;;;;;;;0.08;0.08;;;20.90;84.60;;;;;;5092580;28;20131;-89
2023/05/01 10:55:54;;;;;;;0.52;0.20;;;20.90;84.00;;;;;;5124647;27;20398;-89
2023/05/01 10:58:38;;;;;;;0.10;0.10;;;21.00;91.20;;;;;;5089846;28;20040;-89
2023/05/01 11:01:33;;;;;;;0.55;0.20;;;20.90;82.90;;;;;;5106817;27;20048;-89
2023/05/01 11:04:06;;;;;;;0.20;0.20;;;21.10;84.40;;;;;;5089881;28;20040;-89
2023/05/01 11:06:33;;;;;;;0.10;0.10;;;21.10;90.40;;;;;;5091134;28;20079;-89
2023/05/01 11:09:03;;;;;;;1.02;0.28;;;21.30;90.20;;;;;;5090916;28;20422;-89
2023/05/01 11:11:31;;;;;;;0.20;0.10;;;21.30;84.60;;;;;;5074610;28;20051;-91
2023/05/01 11:14:10;;;;;;;0.10;0.10;;;21.40;86.40;;;;;;5090308;28;20372;-94
2023/05/01 11:16:39;;;;;;;0.30;0.30;;;21.40;87.50;;;;;;5090736;28;20048;-86
2023/05/01 11:19:06;;;;;;;0.20;0.20;;;21.40;87.30;;;;;;5089572;28;20051;-93
2023/05/01 11:21:34;;;;;;;0.40;0.10;;;21.50;86.40;;;;;;5092179;28;20044;-86
2023/05/01 11:24:03;;;;;;;0.30;0.30;;;21.20;82.10;;;;;;5090361;28;20058;-88
2023/05/01 11:26:36;;;;;;;0.30;0.30;;;21.00;83.50;;;;;;5092850;28;20398;-88
2023/05/01 11:29:32;;;;;;;0.57;0.20;;;21.20;84.60;;;;;;5071771;28;20045;-89
2023/05/01 11:31:59;;;;;;;0.60;0.40;;;21.50;84.20;;;;;;5077409;28;20051;-90
2023/05/01 11:34:38;;;;;;;0.20;0.20;;;21.40;85.90;;;;;;5075043;28;20060;-89
2023/05/01 11:37:11;;;;;;;0.32;0.13;;;21.50;83.40;;;;;;5073642;28;20123;-89
2023/05/01 11:39:37;;;;;;;0.40;0.40;;;21.20;85.40;;;;;;5057974;28;20052;-90
2023/05/01 11:42:21;;;;;;;0.10;0.10;;;21.50;87.20;;;;;;5091395;28;20105;-89
2023/05/01 11:45:11;;;;;;;;;;;21.30;83.20;;;;;;5091240;28;20555;-89
2023/05/01 11:47:38;;;;;;;0.13;0.10;;;21.00;80.20;;;;;;5090817;28;19920;-88
2023/05/01 11:50:17;;;;;;;0.75;0.28;;;21.20;86.20;;;;;;5090677;28;20172;-88
2023/05/01 11:52:56;;;;;;;0.63;0.22;;;21.30;84.60;;;;;;5091077;28;20044;-90
2023/05/01 11:55:39;;;;;;;0.00;0.00;;;21.20;82.70;;;;;;5091424;28;20036;-88
2023/05/01 11:58:17;;;;;;;0.32;0.20;;;21.00;83.60;;;;;;5091046;28;20426;-90
2023/05/01 12:00:52;;;;;;;0.20;0.20;;;20.80;86.10;;;;;;5099209;28;20045;-88
2023/05/01 12:03:19;;;;;;;0.60;0.30;;;20.60;82.30;;;;;;5086521;28;20421;-93
2023/05/01 12:05:47;;;;;;;0.00;0.00;;;20.60;86.20;;;;;;5091320;28;20110;-91
2023/05/01 12:08:18;;;;;;;0.20;0.20;;;20.60;86.80;;;;;;5074013;28;20044;-91
2023/05/01 12:10:58;;;;;;;0.50;0.10;;;20.60;84.30;;;;;;5073967;28;20574;-92
2023/05/01 12:13:36;;;;;;;0.15;0.15;;;20.60;86.90;;;;;;5079048;28;20044;-92
2023/05/01 12:16:08;;;;;;;0.10;0.10;;;20.40;82.90;;;;;;5076228;28;20130;-91
2023/05/01 12:18:44;;;;;;;0.20;0.10;;;20.30;83.80;;;;;;5091975;28;20147;-91
2023/05/01 12:21:21;;;;;;;0.40;0.30;;;20.40;84.40;;;;;;5090590;28;20073;-92
2023/05/01 12:24:18;;;;;;;0.10;0.10;;;20.40;83.90;;;;;;5091363;28;20078;-91
2023/05/01 12:26:59;;;;;;;0.10;0.10;;;20.50;83.90;;;;;;5125750;28;20127;-91
2023/05/01 12:29:28;;;;;;;0.05;0.05;;;20.50;83.90;;;;;;5091583;28;20048;-91
2023/05/01 12:32:15;;;;;;;0.45;0.40;;;20.60;85.90;;;;;;5072978;28;20055;-92
2023/05/01 12:34:49;;;;;;;1.52;0.17;;;20.50;85.40;;;;;;5073858;28;20514;-91
2023/05/01 12:37:18;;;;;;;0.52;0.32;;;20.60;84.00;;;;;;5073916;28;20052;-90
2023/05/01 12:39:44;;;;;;;0.10;0.10;;;20.20;83.00;;;;;;5074854;28;20051;-90
2023/05/01 12:42:13;;;;;;;0.10;0.10;;;20.40;80.20;;;;;;5093924;28;20549;-91
2023/05/01 12:44:39;;;;;;;0.43;0.30;;;20.50;85.80;;;;;;5094782;28;20093;-91
2023/05/01 12:47:15;;;;;;;0.10;0.10;;;20.50;85.40;;;;;;5093571;28;20379;-91
2023/05/01 12:49:50;;;;;;;0.00;0.00;;;20.60;86.40;;;;;;5077717;28;20097;-91
2023/05/01 12:52:34;;;;;;;1.67;0.10;;;20.50;82.70;;;;;;5077504;28;20123;-91
2023/05/01 12:55:06;;;;;;;0.10;0.10;;;20.40;82.40;;;;;;5077202;28;20040;-90
2023/05/01 12:57:35;;;;;;;0.77;0.25;;;20.20;83.90;;;;;;5095687;28;20131;-90
2023/05/01 13:00:08;;;;;;;0.10;0.10;;;20.20;85.70;;;;;;5094210;28;20135;-90
2023/05/01 13:02:39;;;;;;;0.03;0.03;;;19.90;83.90;;;;;;5077215;28;20048;-91
2023/05/01 13:05:07;;;;;;;0.10;0.05;;;20.10;86.00;;;;;;5061166;28;20041;-91
2023/05/01 13:07:34;;;;;;;0.20;0.20;;;20.10;86.80;;;;;;5074620;28;20102;-91
2023/05/01 13:10:12;;;;;;;0.20;0.20;;;20.30;88.10;;;;;;5073637;28;20048;-93
2023/05/01 13:12:46;;;;;;;0.38;0.20;;;20.30;84.60;;;;;;5065758;28;20060;-91
2023/05/01 13:15:21;;;;;;;0.20;0.20;;;21.30;86.90;;;;;;5093976;28;20056;-91
2023/05/01 13:18:02;;;;;;;0.10;0.10;;;20.70;84.90;;;;;;5094344;28;20070;-91
2023/05/01 13:20:33;;;;;;;0.10;0.10;;;20.70;86.60;;;;;;5079358;28;20097;-91
2023/05/01 13:23:09;;;;;;;0.10;0.10;;;20.60;85.00;;;;;;5077088;28;20051;-93
2023/05/01 13:25:38;;;;;;;;;;;20.70;84.90;;;;;;5094202;28;20130;-91
2023/05/01 13:28:08;;;;;;;0.10;0.10;;;20.70;84.60;;;;;;5093849;28;19920;-91
2023/05/01 13:30:36;;;;;;;0.00;0.00;;;20.70;87.10;;;;;;5077195;28;20483;-92
2023/05/01 13:33:12;;;;;;;0.08;0.03;;;20.70;88.10;;;;;;5075071;28;20052;-92
2023/05/01 13:35:39;;;;;;;0.87;0.47;;;20.80;87.40;;;;;;5073483;28;20051;-91
2023/05/01 13:38:22;;;;;;;0.65;0.22;;;20.80;83.60;;;;;;5073232;28;20513;-91
2023/05/01 13:41:14;;;;;;;0.55;0.52;;;20.80;86.70;;;;;;5093916;28;20054;-94
2023/05/01 13:43:50;;;;;;;0.10;0.10;;;20.50;84.40;;;;;;5078180;28;20055;-88
2023/05/01 13:46:27;;;;;;;0.32;0.20;;;20.60;86.30;;;;;;5077594;28;20048;-87
2023/05/01 13:49:06;;;;;;;;;;;;;;;;;;;;;
2023/05/01 13:51:56;;;;;;;0.08;0.08;;;21.40;87.10;;;;;;5096063;28;20047;-90
2023/05/01 13:54:23;;;;;;;0.10;0.10;;;21.60;84.50;;;;;;5048024;28;20040;-89
2023/05/01 13:56:49;;;;;;;0.25;0.25;;;21.80;84.00;;;;;;5095255;28;20040;-90
2023/05/01 13:59:23;;;;;;;0.10;0.10;;;21.80;85.00;;;;;;5093160;28;20101;-90
2023/05/01 14:01:54;;;;;;;0.17;0.10;;;21.60;86.10;;;;;;5076892;28;20131;-93
2023/05/01 14:04:23;;;;;;;0.20;0.10;;;21.40;86.60;;;;;;5089951;28;20052;-91
2023/05/01 14:06:49;;;;;;;0.40;0.30;;;21.00;84.80;;;;;;5074933;28;20045;-91
2023/05/01 14:09:23;;;;;;;;;;;20.70;85.20;;;;;;5073860;28;20052;-90
2023/05/01 14:12:10;;;;;;;0.17;0.17;;;20.60;84.80;;;;;;5040501;28;19928;-91
2023/05/01 14:14:49;;;;;;;0.20;0.20;;;19.80;84.10;;;;;;5056726;28;20425;-90
2023/05/01 14:17:18;;;;;;;0.20;0.20;;;20.30;84.90;;;;;;5057312;28;20406;-92
2023/05/01 14:19:45;;;;;;;0.32;0.30;;;20.10;87.40;;;;;;5087117;28;20048;-95
2023/05/01 14:22:43;;;;;;;0.20;0.20;;;19.90;87.70;;;;;;5091896;28;20398;-91
2023/05/01 14:25:38;;;;;;;0.10;0.10;;;19.90;89.20;;;;;;5090905;28;20040;-85
2023/05/01 14:28:10;;;;;;;0.63;0.20;;;19.10;86.60;;;;;;5091148;28;20482;-89
2023/05/01 14:30:48;;;;;;;0.10;0.10;;;20.30;89.30;;;;;;5074315;28;20064;-87
2023/05/01 14:33:19;;;;;;;0.80;0.30;;;20.00;89.60;;;;;;5100724;28;20056;-87
2023/05/01 14:35:56;;;;;;;0.47;0.32;;;19.70;90.30;;;;;;5060175;28;20486;-87
2023/05/01 14:38:29;;;;;;;0.17;0.17;;;19.70;91.00;;;;;;5089423;28;20482;-89
2023/05/01 14:41:05;;;;;;;0.45;0.38;;;19.60;91.10;;;;;;5075696;28;20048;-90
2023/05/01 14:43:52;;;;;;;0.20;0.20;;;19.40;91.10;;;;;;5091406;28;20554;-89
2023/05/01 14:46:50;;;;;;;0.20;0.20;;;19.20;91.50;;;;;;5090961;28;20082;-92
2023/05/01 14:49:28;;;;;;;0.40;0.40;;;20.00;91.80;;;;;;5077990;28;20048;-89
2023/05/01 14:52:01;;;;;;;0.32;0.20;;;19.00;92.00;;;;;;5093772;28;20048;-89
2023/05/01 14:54:26;;;;;;;0.30;0.30;;;18.90;92.20;;;;;;5092313;28;20047;-90
2023/05/01 14:57:00;;;;;;;0.30;0.30;;;18.80;92.50;;;;;;5075871;28;20055;-91
2023/05/01 14:59:28;;;;;;;1.17;0.40;;;19.20;92.40;;;;;;5092030;28;20059;-91
2023/05/01 15:02:01;;;;;;;0.38;0.25;;;17.70;92.20;;;;;;5073962;28;20051;-91
2023/05/01 15:04:32;;;;;;;0.45;0.40;;;19.40;93.30;;;;;;5058534;28;20055;-91
2023/05/01 15:07:31;;;;;;;;;;;;;;;;;;;;;
2023/05/01 15:10:22;;;;;;;;;;;;;;;;;;;;;
2023/05/01 15:12:53;;;;;;;1.38;0.50;;;18.40;93.00;;;;;;5074353;28;20048;-91
2023/05/01 15:15:45;;;;;;;2.83;0.52;;;18.70;92.80;;;;;;5085280;28;20044;-91
2023/05/01 15:18:31;;;;;;;0.15;0.15;;;18.80;92.40;;;;;;5087256;28;20126;-91
2023/05/01 15:20:56;;;;;;;0.30;0.30;;;18.90;92.90;;;;;;5090888;28;20047;-85
2023/05/01 15:23:23;;;;;;;0.60;0.28;;;19.00;93.00;;;;;;5084529;28;20116;-84
2023/05/01 15:25:49;;;;;;;0.68;0.40;;;19.20;92.90;;;;;;5056902;28;20507;-83
2023/05/01 15:28:15;;;;;;;0.15;0.15;;;19.40;92.70;;;;;;5073975;28;20040;-82
2023/05/01 15:30:45;;;;;;;0.40;0.32;;;19.40;92.10;;;;;;5087599;28;20084;-82
2023/05/01 15:33:14;;;;;;;0.65;0.20;;;19.30;92.30;;;;;;5088092;28;20123;-82
2023/05/01 15:35:40;;;;;;;0.40;0.32;;;19.20;92.40;;;;;;5089191;28;20040;-82
2023/05/01 15:38:06;;;;;;;0.20;0.20;;;19.20;92.60;;;;;;5091244;28;20504;-82
2023/05/01 15:40:33;;;;;;;0.20;0.10;;;19.10;92.70;;;;;;5089450;28;20098;-85
2023/05/01 15:43:00;;;;;;;0.47;0.35;;;18.90;92.60;;;;;;5087333;28;20058;-82
2023/05/01 15:45:26;;;;;;;0.20;0.20;;;18.80;93.10;;;;;;5087402;28;20048;-82
2023/05/01 15:47:52;;;;;;;0.40;0.40;;;18.70;93.30;;;;;;5073796;28;20488;-83
2023/05/01 15:50:18;;;;;;;0.70;0.70;;;18.80;93.70;;;;;;5070520;28;20436;-88
2023/05/01 15:52:44;;;;;;;0.20;0.20;;;18.80;93.50;;;;;;5088646;28;20043;-83
2023/05/01 15:55:10;;;;;;;0.80;0.40;;;19.00;94.00;;;;;;5089568;28;20035;-83
2023/05/01 15:57:36;;;;;;;0.40;0.35;;;19.10;93.40;;;;;;5090435;28;20152;-80
2023/05/01 16:00:03;;;;;;;0.85;0.75;;;19.10;93.60;;;;;;5088819;28;20144;-81
2023/05/01 16:02:34;;;;;;;0.40;0.40;;;19.00;93.30;;;;;;5085742;28;20055;-84